Terminal Aerodrome Forecast
Issued by NWS

Home | Current Version | Previous Version | Text Only | Print | Product List | Glossary On
Versions: 1 2 3 4 5 6 7 8 9 10 11 12 13 14 15 16 17 18 19 20 21 22 23 24 25 26 27 28 29 30 31 32 33 34 35 36
000
FTUS43 KAPX 282123 AAS
TAFPLN
TAF AMD
KPLN 282123Z 2821/2918 31015G28KT 3SM -SHSN OVC040
      TEMPO 2821/2901 3/4SM -SHSN OVC027
     FM290300 31014G24KT P6SM VCSH OVC035
     FM290600 32010G20KT P6SM OVC040
     FM290700 31009KT P6SM BKN027
     FM291300 30009KT P6SM BKN040
     FM291400 30008KT P6SM BKN029=

USA.gov is the U.S. government's official web portal to all federal, state and local government web resources and services.